createdAt,value
2022-09-24T00:01:40.941Z,97.05
2022-09-24T00:04:11.769Z,97.13
2022-09-24T00:06:44.590Z,97.01
2022-09-24T00:09:13.895Z,97.38
2022-09-24T00:11:42.634Z,97.35
2022-09-24T00:14:09.291Z,97.43
2022-09-24T00:16:36.034Z,97.56
2022-09-24T00:19:04.869Z,97.66
2022-09-24T00:21:35.032Z,97.74
2022-09-24T00:24:06.554Z,97.86
2022-09-24T00:26:51.842Z,98.03
2022-09-24T00:29:22.273Z,97.87
2022-09-24T00:31:52.075Z,97.81
2022-09-24T00:34:19.951Z,97.92
2022-09-24T00:36:48.009Z,97.90
2022-09-24T00:39:16.490Z,97.95
2022-09-24T00:41:46.756Z,97.95
2022-09-24T00:44:44.789Z,97.89
2022-09-24T00:47:27.103Z,97.85
2022-09-24T00:50:30.825Z,97.94
2022-09-24T00:53:07.173Z,98.09
2022-09-24T00:55:36.430Z,98.30
2022-09-24T00:58:26.091Z,98.29
2022-09-24T01:01:05.137Z,98.36
2022-09-24T01:03:35.948Z,98.27
2022-09-24T01:06:02.702Z,98.17
2022-09-24T01:08:29.309Z,98.08
2022-09-24T01:10:55.814Z,98.33
2022-09-24T01:13:56.218Z,98.48
2022-09-24T01:16:25.723Z,98.55
2022-09-24T01:19:11.155Z,98.42
2022-09-24T01:22:02.972Z,98.66
2022-09-24T01:24:44.879Z,98.75
2022-09-24T01:27:22.879Z,98.90
2022-09-24T01:30:01.980Z,99.00
2022-09-24T01:32:54.980Z,99.07
2022-09-24T01:35:33.923Z,99.15
2022-09-24T01:38:06.539Z,99.16
2022-09-24T01:40:35.377Z,99.20
2022-09-24T01:43:05.341Z,99.22
2022-09-24T01:45:43.138Z,99.08
2022-09-24T01:48:10.399Z,99.24
2022-09-24T01:51:00.275Z,99.22
2022-09-24T01:53:35.471Z,99.26
2022-09-24T01:56:10.350Z,99.32
2022-09-24T01:59:11.182Z,99.13
2022-09-24T02:01:48.103Z,99.30
2022-09-24T02:04:19.436Z,99.43
2022-09-24T02:06:55.371Z,99.53
2022-09-24T02:09:34.296Z,99.46
2022-09-24T02:12:19.358Z,99.65
2022-09-24T02:14:57.480Z,99.58
2022-09-24T02:17:28.608Z,99.80
2022-09-24T02:19:58.521Z,99.87
2022-09-24T02:22:25.710Z,99.89
2022-09-24T02:24:58.265Z,99.88
2022-09-24T02:27:28.469Z,99.97
2022-09-24T02:29:59.746Z,99.98
2022-09-24T02:32:30.686Z,99.95
2022-09-24T02:35:05.379Z,99.98
2022-09-24T02:37:43.994Z,99.80
2022-09-24T02:40:14.191Z,99.97
2022-09-24T02:42:42.292Z,99.95
2022-09-24T02:45:10.160Z,99.98
2022-09-24T02:47:37.199Z,100.00
2022-09-24T02:50:04.663Z,100.00
2022-09-24T02:52:31.448Z,99.99
2022-09-24T02:54:58.093Z,100.00
2022-09-24T02:57:24.929Z,100.00
2022-09-24T02:59:51.845Z,100.00
2022-09-24T03:02:18.773Z,100.00
2022-09-24T03:04:46.708Z,100.00
2022-09-24T03:07:14.366Z,100.00
2022-09-24T03:09:41.154Z,100.00
2022-09-24T03:12:08.340Z,100.00
2022-09-24T03:14:35.134Z,100.00
2022-09-24T03:17:01.873Z,100.00
2022-09-24T03:19:29.015Z,100.00
2022-09-24T03:21:55.958Z,100.00
2022-09-24T03:24:22.600Z,100.00
2022-09-24T03:26:49.361Z,100.00
2022-09-24T03:29:16.418Z,100.00
2022-09-24T03:31:44.094Z,100.00
2022-09-24T03:34:11.175Z,100.00
2022-09-24T03:36:38.035Z,100.00
2022-09-24T03:39:05.185Z,100.00
2022-09-24T03:41:31.815Z,100.00
2022-09-24T03:43:58.565Z,100.00
2022-09-24T03:46:27.841Z,100.00
2022-09-24T03:48:55.732Z,100.00
2022-09-24T03:51:22.586Z,100.00
2022-09-24T03:53:49.464Z,100.00
2022-09-24T03:56:16.372Z,100.00
2022-09-24T03:58:47.778Z,100.00
2022-09-24T04:01:20.775Z,100.00
2022-09-24T04:03:49.822Z,100.00
2022-09-24T04:06:18.743Z,100.00
2022-09-24T04:08:49.008Z,100.00
2022-09-24T04:11:16.615Z,100.00
2022-09-24T04:13:44.025Z,100.00
2022-09-24T04:16:10.859Z,100.00
2022-09-24T04:18:39.579Z,100.00
2022-09-24T04:21:06.929Z,100.00
2022-09-24T04:23:33.852Z,100.00
2022-09-24T04:26:01.734Z,100.00
2022-09-24T04:28:30.201Z,100.00
2022-09-24T04:30:57.977Z,100.00
2022-09-24T04:33:24.794Z,100.00
2022-09-24T04:35:51.638Z,100.00
2022-09-24T04:38:20.989Z,100.00
2022-09-24T04:40:48.113Z,100.00
2022-09-24T04:43:14.930Z,100.00
2022-09-24T04:45:44.639Z,100.00
2022-09-24T04:48:12.196Z,100.00
2022-09-24T04:50:43.294Z,100.00
2022-09-24T04:53:12.739Z,100.00
2022-09-24T04:55:41.120Z,100.00
2022-09-24T04:58:08.985Z,100.00
2022-09-24T05:00:36.059Z,100.00
2022-09-24T05:03:03.232Z,100.00
2022-09-24T05:05:31.973Z,100.00
2022-09-24T05:08:00.147Z,100.00
2022-09-24T05:10:28.618Z,100.00
2022-09-24T05:12:55.366Z,100.00
2022-09-24T05:15:22.147Z,100.00
2022-09-24T05:17:48.964Z,100.00
2022-09-24T05:20:18.804Z,100.00
2022-09-24T05:22:47.437Z,100.00
2022-09-24T05:25:15.981Z,100.00
2022-09-24T05:28:00.786Z,100.00
2022-09-24T05:30:27.688Z,100.00
2022-09-24T05:32:54.419Z,100.00
2022-09-24T05:35:23.394Z,100.00
2022-09-24T05:37:52.969Z,100.00
2022-09-24T05:40:55.288Z,100.00
2022-09-24T05:43:21.996Z,100.00
2022-09-24T05:45:49.746Z,100.00
2022-09-24T05:48:16.900Z,100.00
2022-09-24T05:50:43.742Z,99.95
2022-09-24T05:53:10.805Z,99.92
2022-09-24T05:55:37.474Z,99.72
2022-09-24T05:58:10.424Z,99.48
2022-09-24T06:00:37.528Z,99.34
2022-09-24T06:03:12.423Z,99.49
2022-09-24T06:05:46.771Z,99.43
2022-09-24T06:08:15.048Z,99.08
2022-09-24T06:10:45.081Z,98.40
2022-09-24T06:13:13.688Z,97.65
2022-09-24T06:15:41.845Z,97.32
2022-09-24T06:18:10.192Z,96.70
2022-09-24T06:20:38.131Z,96.59
2022-09-24T06:23:05.982Z,95.89
2022-09-24T06:25:33.068Z,95.61
2022-09-24T06:28:02.990Z,95.61
2022-09-24T06:30:33.761Z,95.40
2022-09-24T06:33:08.026Z,94.93
2022-09-24T06:35:41.082Z,94.68
2022-09-24T06:38:11.557Z,94.14
2022-09-24T06:40:38.709Z,93.77
2022-09-24T06:43:06.856Z,93.30
2022-09-24T06:45:34.276Z,91.23
2022-09-24T06:48:02.570Z,90.73
2022-09-24T06:50:31.310Z,91.12
2022-09-24T06:52:58.529Z,90.97
2022-09-24T06:55:25.078Z,90.14
2022-09-24T06:58:05.474Z,88.47
2022-09-24T07:00:32.994Z,87.74
2022-09-24T07:03:00.595Z,87.47
2022-09-24T07:05:27.339Z,86.42
2022-09-24T07:07:54.014Z,85.90
2022-09-24T07:10:20.845Z,84.92
2022-09-24T07:12:47.763Z,84.11
2022-09-24T07:15:14.503Z,82.71
2022-09-24T07:17:41.440Z,81.48
2022-09-24T07:20:08.702Z,81.26
2022-09-24T07:22:39.835Z,82.14
2022-09-24T07:25:11.802Z,81.45
2022-09-24T07:27:39.059Z,79.80
2022-09-24T07:30:08.005Z,77.48
2022-09-24T07:32:35.910Z,76.00
2022-09-24T07:35:02.687Z,73.69
2022-09-24T07:37:32.071Z,73.60
2022-09-24T07:39:59.125Z,70.72
2022-09-24T07:42:26.005Z,69.57
2022-09-24T07:44:52.648Z,67.99
2022-09-24T07:47:19.505Z,67.89
2022-09-24T07:49:46.175Z,67.59
2022-09-24T07:52:13.326Z,67.56
2022-09-24T07:54:41.380Z,66.16
2022-09-24T07:57:14.938Z,64.99
2022-09-24T07:59:44.218Z,63.79
2022-09-24T08:02:16.860Z,63.22
2022-09-24T08:04:44.419Z,63.79
2022-09-24T08:07:13.717Z,64.33
2022-09-24T08:09:40.498Z,63.86
2022-09-24T08:12:07.840Z,63.23
2022-09-24T08:14:34.724Z,62.94
2022-09-24T08:17:02.207Z,62.88
2022-09-24T08:19:30.885Z,58.73
2022-09-24T08:21:58.220Z,59.43
2022-09-24T08:24:25.711Z,57.75
2022-09-24T08:26:52.498Z,55.58
2022-09-24T08:29:19.409Z,53.74
2022-09-24T08:31:46.236Z,52.11
2022-09-24T08:34:14.327Z,50.69
2022-09-24T08:36:43.150Z,49.65
2022-09-24T08:39:13.315Z,48.37
2022-09-24T08:41:57.561Z,47.24
2022-09-24T08:45:04.901Z,46.24
2022-09-24T08:47:43.056Z,47.79
2022-09-24T08:50:17.782Z,47.77
2022-09-24T08:52:58.554Z,47.80
2022-09-24T08:55:38.195Z,46.38
2022-09-24T08:58:11.237Z,45.54
2022-09-24T09:00:56.317Z,43.65
2022-09-24T09:03:36.728Z,44.39
2022-09-24T09:06:18.843Z,44.24
2022-09-24T09:09:06.897Z,43.98
2022-09-24T09:11:37.465Z,43.15
2022-09-24T09:14:19.315Z,43.27
2022-09-24T09:16:55.132Z,42.57
2022-09-24T09:19:35.181Z,41.88
2022-09-24T09:22:15.767Z,40.43
2022-09-24T09:24:49.988Z,39.21
2022-09-24T09:27:19.704Z,39.33
2022-09-24T09:29:54.261Z,39.52
2022-09-24T09:32:21.036Z,38.48
2022-09-24T09:35:03.005Z,36.95
2022-09-24T09:38:07.706Z,36.86
2022-09-24T09:40:47.917Z,37.25
2022-09-24T09:43:15.093Z,37.16
2022-09-24T09:46:13.203Z,36.40
2022-09-24T09:48:53.968Z,37.18
2022-09-24T09:51:25.639Z,35.40
2022-09-24T09:53:59.498Z,35.74
2022-09-24T09:56:30.777Z,34.68
2022-09-24T09:59:07.666Z,33.62
2022-09-24T10:01:37.710Z,33.62
2022-09-24T10:04:05.218Z,32.87
2022-09-24T10:06:34.960Z,32.20
2022-09-24T10:09:14.607Z,31.47
2022-09-24T10:11:41.850Z,32.64
2022-09-24T10:14:14.631Z,34.37
2022-09-24T10:16:48.370Z,35.69
2022-09-24T10:19:24.736Z,37.17
2022-09-24T10:21:55.152Z,37.83
2022-09-24T10:24:24.792Z,37.93
2022-09-24T10:26:53.170Z,37.60
2022-09-24T10:29:46.606Z,38.55
2022-09-24T10:32:25.955Z,38.28
2022-09-24T10:35:18.436Z,34.42
2022-09-24T10:37:57.897Z,32.17
2022-09-24T10:40:40.409Z,31.74
2022-09-24T10:43:15.313Z,33.28
2022-09-24T10:46:01.121Z,33.07
2022-09-24T10:48:45.704Z,33.43
2022-09-24T10:51:29.321Z,34.09
2022-09-24T10:54:15.312Z,34.28
2022-09-24T10:56:55.197Z,32.02
2022-09-24T10:59:54.419Z,31.61
2022-09-24T11:02:28.511Z,30.49
2022-09-24T11:05:23.595Z,31.95
2022-09-24T11:08:25.882Z,31.44
2022-09-24T11:11:25.648Z,33.19
2022-09-24T11:14:08.578Z,32.95
2022-09-24T11:17:17.119Z,33.59
2022-09-24T11:19:49.998Z,34.55
2022-09-24T11:22:38.555Z,36.03
2022-09-24T11:25:42.710Z,37.20
2022-09-24T11:28:16.418Z,38.39
2022-09-24T11:31:15.920Z,38.33
2022-09-24T11:34:01.434Z,39.04
2022-09-24T11:36:40.197Z,38.86
2022-09-24T11:39:38.876Z,38.63
2022-09-24T11:42:19.447Z,38.82
2022-09-24T11:45:15.835Z,38.80
2022-09-24T11:48:10.492Z,38.87
2022-09-24T11:51:02.494Z,40.11
2022-09-24T11:53:39.985Z,40.36
2022-09-24T11:56:15.502Z,39.84
2022-09-24T11:58:58.575Z,38.35
2022-09-24T12:01:33.445Z,36.79
2022-09-24T12:04:13.137Z,32.46
2022-09-24T12:06:59.975Z,31.38
2022-09-24T12:09:38.478Z,31.25
2022-09-24T12:12:19.631Z,30.03
2022-09-24T12:14:55.465Z,30.75
2022-09-24T12:17:46.423Z,31.92
2022-09-24T12:20:20.485Z,31.76
2022-09-24T12:22:52.149Z,31.97
2022-09-24T12:25:19.404Z,32.65
2022-09-24T12:27:47.638Z,32.34
2022-09-24T12:30:58.591Z,30.92
2022-09-24T12:33:53.689Z,30.88
2022-09-24T12:36:27.616Z,30.61
2022-09-24T12:39:01.957Z,29.00
2022-09-24T12:41:32.014Z,27.40
2022-09-24T12:44:01.295Z,27.98
2022-09-24T12:46:37.960Z,28.67
2022-09-24T12:49:31.228Z,29.62
2022-09-24T12:52:18.666Z,29.47
2022-09-24T12:54:45.934Z,31.04
2022-09-24T12:57:25.262Z,31.29
2022-09-24T13:00:04.444Z,31.23
2022-09-24T13:02:45.842Z,31.29
2022-09-24T13:05:22.123Z,31.19
2022-09-24T13:08:16.520Z,31.55
2022-09-24T13:11:00.349Z,32.23
2022-09-24T13:13:31.440Z,32.48
2022-09-24T13:16:15.882Z,31.83
2022-09-24T13:18:50.350Z,30.70
2022-09-24T13:21:24.780Z,31.16
2022-09-24T13:23:52.217Z,31.05
2022-09-24T13:26:24.629Z,29.59
2022-09-24T13:28:58.674Z,29.73
2022-09-24T13:31:27.103Z,29.94
2022-09-24T13:34:03.535Z,30.54
2022-09-24T13:36:41.920Z,31.64
2022-09-24T13:39:34.649Z,32.26
2022-09-24T13:42:37.234Z,33.06
2022-09-24T13:45:15.563Z,32.12
2022-09-24T13:47:51.578Z,31.43
2022-09-24T13:50:31.976Z,32.44
2022-09-24T13:53:07.163Z,33.63
2022-09-24T13:55:45.169Z,33.66
2022-09-24T13:58:30.586Z,34.41
2022-09-24T14:01:00.104Z,35.19
2022-09-24T14:03:32.923Z,36.05
2022-09-24T14:06:05.149Z,36.17
2022-09-24T14:08:32.758Z,37.07
2022-09-24T14:11:12.915Z,38.02
2022-09-24T14:13:45.559Z,38.41
2022-09-24T14:16:19.395Z,38.81
2022-09-24T14:18:47.319Z,39.19
2022-09-24T14:21:35.255Z,39.42
2022-09-24T14:24:28.264Z,39.63
2022-09-24T14:27:09.506Z,39.00
2022-09-24T14:30:04.231Z,38.95
2022-09-24T14:32:42.061Z,39.27
2022-09-24T14:35:31.809Z,39.90
2022-09-24T14:38:15.859Z,39.30
2022-09-24T14:40:51.472Z,38.65
2022-09-24T14:43:31.291Z,37.76
2022-09-24T14:46:06.676Z,37.69
2022-09-24T14:48:34.865Z,37.25
2022-09-24T14:51:01.735Z,37.97
2022-09-24T14:53:34.716Z,39.13
2022-09-24T14:56:29.874Z,39.78
2022-09-24T14:58:57.025Z,40.81
2022-09-24T15:01:31.205Z,41.47
2022-09-24T15:04:05.168Z,42.14
2022-09-24T15:06:34.812Z,41.68
2022-09-24T15:09:24.665Z,42.03
2022-09-24T15:11:55.181Z,42.29
2022-09-24T15:14:27.006Z,41.78
2022-09-24T15:16:54.981Z,42.58
2022-09-24T15:19:28.292Z,43.01
2022-09-24T15:21:59.950Z,42.97
2022-09-24T15:24:26.838Z,42.65
2022-09-24T15:27:06.236Z,41.80
2022-09-24T15:29:33.799Z,42.37
2022-09-24T15:32:00.998Z,41.75
2022-09-24T15:34:28.776Z,40.68
2022-09-24T15:36:58.891Z,40.45
2022-09-24T15:39:27.765Z,40.47
2022-09-24T15:41:54.571Z,40.89
2022-09-24T15:44:29.690Z,41.48
2022-09-24T15:47:03.125Z,42.33
2022-09-24T15:49:30.889Z,43.51
2022-09-24T15:52:24.016Z,44.75
2022-09-24T15:54:51.959Z,45.27
2022-09-24T15:57:18.811Z,46.36
2022-09-24T15:59:45.675Z,47.32
2022-09-24T16:02:18.710Z,50.71
2022-09-24T16:04:45.919Z,54.75
2022-09-24T16:07:12.762Z,58.27
2022-09-24T16:09:40.344Z,60.52
2022-09-24T16:12:06.979Z,61.28
2022-09-24T16:14:33.722Z,61.78
2022-09-24T16:17:00.481Z,62.77
2022-09-24T16:19:31.135Z,63.63
2022-09-24T16:21:59.293Z,64.65
2022-09-24T16:24:26.439Z,65.26
2022-09-24T16:26:53.109Z,65.75
2022-09-24T16:29:20.039Z,66.52
2022-09-24T16:31:49.005Z,67.30
2022-09-24T16:34:15.971Z,68.10
2022-09-24T16:36:42.756Z,68.99
2022-09-24T16:39:10.111Z,69.53
2022-09-24T16:41:37.476Z,69.63
2022-09-24T16:44:04.374Z,69.59
2022-09-24T16:46:31.429Z,69.88
2022-09-24T16:48:58.237Z,70.24
2022-09-24T16:51:24.905Z,70.07
2022-09-24T16:53:55.990Z,70.40
2022-09-24T16:56:23.779Z,70.73
2022-09-24T16:58:52.009Z,71.02
2022-09-24T17:01:20.716Z,71.33
2022-09-24T17:03:55.622Z,71.48
2022-09-24T17:06:27.947Z,71.86
2022-09-24T17:09:14.386Z,72.25
2022-09-24T17:11:41.948Z,72.59
2022-09-24T17:14:11.850Z,72.71
2022-09-24T17:16:43.265Z,73.02
2022-09-24T17:19:11.475Z,73.22
2022-09-24T17:21:40.929Z,73.52
2022-09-24T17:24:09.097Z,74.00
2022-09-24T17:26:37.912Z,74.23
2022-09-24T17:29:05.651Z,74.34
2022-09-24T17:31:33.073Z,74.92
2022-09-24T17:34:07.089Z,75.34
2022-09-24T17:36:34.982Z,75.83
2022-09-24T17:39:02.691Z,76.23
2022-09-24T17:41:30.102Z,76.68
2022-09-24T17:43:58.240Z,77.78
2022-09-24T17:46:30.620Z,78.29
2022-09-24T17:49:00.056Z,78.48
2022-09-24T17:51:37.911Z,78.74
2022-09-24T17:54:08.419Z,79.20
2022-09-24T17:56:38.696Z,79.47
2022-09-24T17:59:07.903Z,79.82
2022-09-24T18:01:36.610Z,80.16
2022-09-24T18:04:12.867Z,80.29
2022-09-24T18:06:41.298Z,80.55
2022-09-24T18:09:10.065Z,80.79
2022-09-24T18:11:40.578Z,81.02
2022-09-24T18:14:13.935Z,81.26
2022-09-24T18:16:41.627Z,81.82
2022-09-24T18:19:10.497Z,82.95
2022-09-24T18:21:37.802Z,83.22
2022-09-24T18:24:04.788Z,83.08
2022-09-24T18:26:36.344Z,83.27
2022-09-24T18:29:11.116Z,83.47
2022-09-24T18:31:40.737Z,83.66
2022-09-24T18:34:09.317Z,83.73
2022-09-24T18:36:38.664Z,84.03
2022-09-24T18:39:07.936Z,84.35
2022-09-24T18:41:36.605Z,84.44
2022-09-24T18:44:03.969Z,84.67
2022-09-24T18:46:32.526Z,85.06
2022-09-24T18:49:00.334Z,85.51
2022-09-24T18:51:35.994Z,85.59
2022-09-24T18:54:06.520Z,85.55
2022-09-24T18:56:34.476Z,85.60
2022-09-24T18:59:09.767Z,85.99
2022-09-24T19:01:41.917Z,86.20
2022-09-24T19:04:10.236Z,86.38
2022-09-24T19:06:40.202Z,86.99
2022-09-24T19:09:12.953Z,87.62
2022-09-24T19:11:41.535Z,87.95
2022-09-24T19:14:11.571Z,88.02
2022-09-24T19:16:39.366Z,88.20
2022-09-24T19:19:06.549Z,88.77
2022-09-24T19:21:33.311Z,89.20
2022-09-24T19:24:00.155Z,89.28
2022-09-24T19:26:30.481Z,89.62
2022-09-24T19:28:58.250Z,89.75
2022-09-24T19:31:38.252Z,89.74
2022-09-24T19:34:08.072Z,89.80
2022-09-24T19:36:44.647Z,90.06
2022-09-24T19:39:17.668Z,90.10
2022-09-24T19:41:45.228Z,90.04
2022-09-24T19:44:13.030Z,90.25
2022-09-24T19:46:40.691Z,90.65
2022-09-24T19:49:07.798Z,90.90
2022-09-24T19:51:35.876Z,91.17
2022-09-24T19:54:08.242Z,91.26
2022-09-24T19:56:39.537Z,91.26
2022-09-24T19:59:08.893Z,91.18
2022-09-24T20:01:36.000Z,91.35
2022-09-24T20:04:06.361Z,91.71
2022-09-24T20:06:36.088Z,91.98
2022-09-24T20:09:03.406Z,92.05
2022-09-24T20:11:32.205Z,92.14
2022-09-24T20:14:00.635Z,92.07
2022-09-24T20:16:33.273Z,92.20
2022-09-24T20:19:01.404Z,92.36
2022-09-24T20:21:33.942Z,92.38
2022-09-24T20:24:03.085Z,92.27
2022-09-24T20:26:48.794Z,92.53
2022-09-24T20:29:19.130Z,92.73
2022-09-24T20:31:52.035Z,93.02
2022-09-24T20:34:21.821Z,93.22
2022-09-24T20:36:48.873Z,93.10
2022-09-24T20:39:17.032Z,93.44
2022-09-24T20:41:49.121Z,93.91
2022-09-24T20:44:16.354Z,94.09
2022-09-24T20:46:43.431Z,93.90
2022-09-24T20:49:22.089Z,93.89
2022-09-24T20:51:56.193Z,94.03
2022-09-24T20:54:39.655Z,94.15
2022-09-24T20:57:06.614Z,94.05
2022-09-24T20:59:33.462Z,94.06
2022-09-24T21:02:00.771Z,93.80
2022-09-24T21:04:27.738Z,93.66
2022-09-24T21:06:54.666Z,93.42
2022-09-24T21:09:21.535Z,92.93
2022-09-24T21:11:50.520Z,92.94
2022-09-24T21:14:18.391Z,92.83
2022-09-24T21:16:47.080Z,92.53
2022-09-24T21:19:15.517Z,92.33
2022-09-24T21:21:42.718Z,92.07
2022-09-24T21:24:13.874Z,91.98
2022-09-24T21:26:42.329Z,91.91
2022-09-24T21:29:22.279Z,91.94
2022-09-24T21:31:49.218Z,91.94
2022-09-24T21:34:22.616Z,91.96
2022-09-24T21:36:51.917Z,92.11
2022-09-24T21:39:22.613Z,92.17
2022-09-24T21:41:52.553Z,92.28
2022-09-24T21:44:19.528Z,92.47
2022-09-24T21:46:48.062Z,92.62
2022-09-24T21:49:16.609Z,92.82
2022-09-24T21:51:44.752Z,93.21
2022-09-24T21:54:15.985Z,93.48
2022-09-24T21:56:43.759Z,93.82
2022-09-24T21:59:36.614Z,94.01
2022-09-24T22:02:04.090Z,94.32
2022-09-24T22:04:33.726Z,94.57
2022-09-24T22:07:00.583Z,94.73
2022-09-24T22:09:28.893Z,95.22
2022-09-24T22:11:57.309Z,95.45
2022-09-24T22:14:24.112Z,95.74
2022-09-24T22:16:51.224Z,95.80
2022-09-24T22:19:19.147Z,95.85
2022-09-24T22:21:46.407Z,95.90
2022-09-24T22:24:15.574Z,95.94
2022-09-24T22:26:42.627Z,95.91
2022-09-24T22:29:09.360Z,95.88
2022-09-24T22:31:35.998Z,96.08
2022-09-24T22:34:21.495Z,96.06
2022-09-24T22:36:48.520Z,96.14
2022-09-24T22:39:15.279Z,96.26
2022-09-24T22:41:43.636Z,96.20
2022-09-24T22:44:11.564Z,96.19
2022-09-24T22:46:39.138Z,96.31
2022-09-24T22:49:06.425Z,96.53
2022-09-24T22:51:33.499Z,96.58
2022-09-24T22:54:00.825Z,96.62
2022-09-24T22:56:29.506Z,96.53
2022-09-24T22:59:00.560Z,96.57
2022-09-24T23:01:34.602Z,96.57
2022-09-24T23:04:02.014Z,96.66
2022-09-24T23:06:35.124Z,96.85
2022-09-24T23:09:02.256Z,97.10
2022-09-24T23:11:31.968Z,96.99
2022-09-24T23:14:02.630Z,96.91
2022-09-24T23:16:32.094Z,96.92
2022-09-24T23:19:01.298Z,97.15
2022-09-24T23:21:30.999Z,96.97
2022-09-24T23:24:06.972Z,96.85
2022-09-24T23:26:34.056Z,97.09
2022-09-24T23:29:01.973Z,97.07
2022-09-24T23:31:31.553Z,97.00
2022-09-24T23:34:00.701Z,96.96
2022-09-24T23:36:30.529Z,97.27
2022-09-24T23:38:59.271Z,97.48
2022-09-24T23:41:28.475Z,97.50
2022-09-24T23:44:01.563Z,97.62
2022-09-24T23:46:29.679Z,97.71
2022-09-24T23:48:56.902Z,97.58
2022-09-24T23:51:24.093Z,97.69
2022-09-24T23:53:51.399Z,97.80
2022-09-24T23:56:19.763Z,97.93
2022-09-24T23:58:47.218Z,98.17
